TAF and METAR

Could not understand the following METAR

YPPD 191500Z AUTO 19008KT 9999 // NCD 29/26 Q1007

TAF for Port Hedland International Airport

TAF YPPD 191102Z 1912/2012 23006KT CAVOK FM200300 02016KT CAVOK
Report created 19. mar 12:02

between 19. mar 13:00 - 20. mar 13:00

wind 6 knots from SW (230°) Clear sky

From 20. mar 04:00

wind 16 knots from NNE (020°) Clear sky
Port Hedland International Airport in Australia at 6m

Latest 5 airports